Time;durP1;ratioP1;P1;durP2;ratioP2;P2;SDS_P1;SDS_P2;PMS_P1;PMS_P2;Temp;Humidity;BMP_temperature;BMP_pressure;BME280_temperature;BME280_humidity;BME280_pressure;Samples;Min_cycle;Max_cycle;Signal;HPM_P1;HPM_P2
2022/03/29 00:01:17;;;;;;;16.03;11.30;;;;;;;;;;5003105;28;20436;-77
2022/03/29 00:03:43;;;;;;;12.83;9.10;;;;;;;;;;4986506;28;20433;-77
2022/03/29 00:06:09;;;;;;;17.30;10.50;;;;;;;;;;4999911;28;20447;-78
2022/03/29 00:08:36;;;;;;;21.00;10.77;;;;;;;;;;5002060;28;20454;-77
2022/03/29 00:11:02;;;;;;;18.43;10.43;;;;;;;;;;5005730;28;20470;-77
2022/03/29 00:13:28;;;;;;;15.77;10.23;;;;;;;;;;4999817;28;20447;-77
2022/03/29 00:15:54;;;;;;;16.07;9.90;;;;;;;;;;5005141;28;20462;-77
2022/03/29 00:18:20;;;;;;;17.00;10.17;;;;;;;;;;5005075;28;20714;-78
2022/03/29 00:20:46;;;;;;;14.40;9.83;;;;;;;;;;4999034;28;20431;-78
2022/03/29 00:23:12;;;;;;;17.73;10.00;;;;;;;;;;4994083;28;20432;-78
2022/03/29 00:25:38;;;;;;;17.40;10.10;;;;;;;;;;5012297;28;20441;-78
2022/03/29 00:28:05;;;;;;;14.00;9.20;;;;;;;;;;4998468;28;20423;-78
2022/03/29 00:30:31;;;;;;;17.47;10.77;;;;;;;;;;5011471;28;20434;-78
2022/03/29 00:32:57;;;;;;;15.57;10.60;;;;;;;;;;5002873;28;20467;-78
2022/03/29 00:35:24;;;;;;;17.60;10.17;;;;;;;;;;5000372;28;20471;-78
2022/03/29 00:37:51;;;;;;;14.97;10.47;;;;;;;;;;5001986;28;20459;-78
2022/03/29 00:40:19;;;;;;;18.80;9.93;;;;;;;;;;4986073;28;20452;-78
2022/03/29 00:42:45;;;;;;;15.97;10.27;;;;;;;;;;5007008;28;20446;-78
2022/03/29 00:45:11;;;;;;;13.63;9.57;;;;;;;;;;4999906;28;20514;-78
2022/03/29 00:47:37;;;;;;;19.60;10.50;;;;;;;;;;4994074;28;20436;-78
2022/03/29 00:50:04;;;;;;;14.47;9.00;;;;;;;;;;5004458;28;20573;-78
2022/03/29 00:52:31;;;;;;;17.63;10.63;;;;;;;;;;5000515;28;20447;-78
2022/03/29 00:54:59;;;;;;;13.40;8.97;;;;;;;;;;5008324;28;20454;-77
2022/03/29 00:57:27;;;;;;;15.00;9.50;;;;;;;;;;5010910;28;20431;-77
2022/03/29 00:59:54;;;;;;;16.63;10.20;;;;;;;;;;5006307;28;20524;-77
2022/03/29 01:02:20;;;;;;;19.27;11.40;;;;;;;;;;4988840;28;20440;-77
2022/03/29 01:04:47;;;;;;;13.50;10.33;;;;;;;;;;4990355;28;20489;-77
2022/03/29 01:07:13;;;;;;;15.77;9.67;;;;;;;;;;4988722;28;20485;-78
2022/03/29 01:09:39;;;;;;;14.87;9.20;;;;;;;;;;4993170;28;20467;-77
2022/03/29 01:12:06;;;;;;;15.70;10.17;;;;;;;;;;5007567;28;20443;-77
2022/03/29 01:14:32;;;;;;;12.97;9.47;;;;;;;;;;5011656;28;20459;-77
2022/03/29 01:19:43;;;;;;;15.73;11.03;;;;;;;;;;5004454;28;20479;-77
2022/03/29 01:22:10;;;;;;;15.80;10.97;;;;;;;;;;5000254;28;20482;-77
2022/03/29 01:24:37;;;;;;;17.70;9.80;;;;;;;;;;5008286;28;20899;-78
2022/03/29 01:27:05;;;;;;;17.73;10.20;;;;;;;;;;5003905;28;20431;-78
2022/03/29 01:29:32;;;;;;;18.37;9.87;;;;;;;;;;5005718;28;20447;-77
2022/03/29 01:31:58;;;;;;;14.50;10.80;;;;;;;;;;5007315;28;20776;-77
2022/03/29 01:34:25;;;;;;;17.90;10.20;;;;;;;;;;5012275;28;20467;-77
2022/03/29 01:36:51;;;;;;;22.20;9.53;;;;;;;;;;4991209;28;20435;-77
2022/03/29 01:39:17;;;;;;;15.73;9.60;;;;;;;;;;5011183;28;20535;-78
2022/03/29 01:41:43;;;;;;;15.00;10.20;;;;;;;;;;5000818;28;20851;-78
2022/03/29 01:44:10;;;;;;;16.03;10.30;;;;;;;;;;5000800;28;20513;-78
2022/03/29 01:46:36;;;;;;;17.50;9.83;;;;;;;;;;5009578;28;20426;-78
2022/03/29 01:49:03;;;;;;;26.00;10.23;;;;;;;;;;5004593;28;20502;-78
2022/03/29 01:51:30;;;;;;;19.90;10.20;;;;;;;;;;4994851;28;20792;-77
2022/03/29 01:53:57;;;;;;;18.60;10.60;;;;;;;;;;5003828;28;20974;-77
2022/03/29 01:56:26;;;;;;;17.13;10.43;;;;;;;;;;4997130;28;20457;-78
2022/03/29 01:58:52;;;;;;;15.70;9.60;;;;;;;;;;5012749;28;20451;-78
2022/03/29 02:01:18;;;;;;;18.47;10.43;;;;;;;;;;4994116;28;20435;-77
2022/03/29 02:03:44;;;;;;;16.20;10.27;;;;;;;;;;5009951;28;20526;-76
2022/03/29 02:06:10;;;;;;;20.00;12.17;;;;;;;;;;5002753;28;20435;-78
2022/03/29 02:08:37;;;;;;;15.20;10.00;;;;;;;;;;4987514;28;20458;-77
2022/03/29 02:11:03;;;;;;;13.70;9.57;;;;;;;;;;4999222;28;20440;-77
2022/03/29 02:13:29;;;;;;;18.57;11.07;;;;;;;;;;4993786;28;20486;-77
2022/03/29 02:15:55;;;;;;;15.23;10.00;;;;;;;;;;4982727;28;20467;-77
2022/03/29 02:18:21;;;;;;;20.57;11.97;;;;;;;;;;5006975;28;20443;-77
2022/03/29 02:20:47;;;;;;;15.47;10.60;;;;;;;;;;4995527;28;20519;-79
2022/03/29 02:23:15;;;;;;;16.40;10.57;;;;;;;;;;5006466;28;20503;-78
2022/03/29 02:25:42;;;;;;;18.63;11.00;;;;;;;;;;5012229;28;20435;-78
2022/03/29 02:28:08;;;;;;;20.20;10.03;;;;;;;;;;5008196;28;20423;-77
2022/03/29 02:30:35;;;;;;;14.30;9.50;;;;;;;;;;5010253;28;20501;-77
2022/03/29 02:33:02;;;;;;;18.67;10.17;;;;;;;;;;4992861;28;20787;-78
2022/03/29 02:35:28;;;;;;;17.07;9.00;;;;;;;;;;5003748;28;20455;-78
2022/03/29 02:37:54;;;;;;;14.07;9.43;;;;;;;;;;4992546;28;20436;-78
2022/03/29 02:40:20;;;;;;;16.20;10.20;;;;;;;;;;5007586;28;20840;-78
2022/03/29 02:42:47;;;;;;;14.27;8.90;;;;;;;;;;5012089;28;20427;-78
2022/03/29 02:45:18;;;;;;;18.53;9.83;;;;;;;;;;5013103;28;20890;-77
2022/03/29 02:47:45;;;;;;;20.37;10.83;;;;;;;;;;5006098;28;20517;-78
2022/03/29 02:50:12;;;;;;;12.77;9.00;;;;;;;;;;4997963;28;20475;-78
2022/03/29 02:52:58;;;;;;;14.23;9.70;;;;;;;;;;5003915;28;20435;-77
2022/03/29 02:55:26;;;;;;;15.93;10.20;;;;;;;;;;5011248;28;20466;-77
2022/03/29 02:57:52;;;;;;;15.13;9.20;;;;;;;;;;5005123;28;20437;-77
2022/03/29 03:00:18;;;;;;;20.33;12.13;;;;;;;;;;5014356;28;20471;-77
2022/03/29 03:02:48;;;;;;;15.57;9.80;;;;;;;;;;5013783;28;20431;-78
2022/03/29 03:05:14;;;;;;;17.80;10.33;;;;;;;;;;4996564;28;20400;-77
2022/03/29 03:07:41;;;;;;;20.07;10.10;;;;;;;;;;4996723;28;20780;-76
2022/03/29 03:10:07;;;;;;;16.63;11.60;;;;;;;;;;5004120;28;20460;-77
2022/03/29 03:12:39;;;;;;;17.33;10.10;;;;;;;;;;4998565;28;20408;-77
2022/03/29 03:15:06;;;;;;;15.73;9.63;;;;;;;;;;5005852;28;20823;-78
2022/03/29 03:17:32;;;;;;;15.17;10.70;;;;;;;;;;5007512;28;20439;-77
2022/03/29 03:19:58;;;;;;;16.10;11.77;;;;;;;;;;5002493;28;20653;-77
2022/03/29 03:22:24;;;;;;;15.10;10.17;;;;;;;;;;5014301;28;20502;-77
2022/03/29 03:24:51;;;;;;;18.83;10.70;;;;;;;;;;5016036;28;20407;-77
2022/03/29 03:27:17;;;;;;;17.77;11.60;;;;;;;;;;4998307;28;21044;-77
2022/03/29 03:29:46;;;;;;;17.30;11.33;;;;;;;;;;5006471;28;20451;-78
2022/03/29 03:32:13;;;;;;;16.30;9.73;;;;;;;;;;5012114;28;20422;-78
2022/03/29 03:34:39;;;;;;;21.90;10.27;;;;;;;;;;5005592;28;20459;-78
2022/03/29 03:37:05;;;;;;;17.13;9.97;;;;;;;;;;5004538;28;20489;-78
2022/03/29 03:39:33;;;;;;;18.03;11.20;;;;;;;;;;4991100;28;20795;-77
2022/03/29 03:41:59;;;;;;;19.50;11.43;;;;;;;;;;5002410;28;20435;-78
2022/03/29 03:44:26;;;;;;;18.17;10.07;;;;;;;;;;5009856;28;20455;-78
2022/03/29 03:46:52;;;;;;;16.73;9.60;;;;;;;;;;5007265;28;20440;-77
2022/03/29 03:49:18;;;;;;;18.00;10.47;;;;;;;;;;5006795;28;20462;-78
2022/03/29 03:51:44;;;;;;;18.03;9.53;;;;;;;;;;4993619;28;20967;-78
2022/03/29 03:54:10;;;;;;;13.70;9.90;;;;;;;;;;5008241;28;20901;-78
2022/03/29 03:56:37;;;;;;;18.33;10.23;;;;;;;;;;5010155;28;20428;-77
2022/03/29 03:59:03;;;;;;;17.47;10.17;;;;;;;;;;4987772;28;20486;-78
2022/03/29 04:01:29;;;;;;;18.73;10.90;;;;;;;;;;5017835;28;20439;-78
2022/03/29 04:03:55;;;;;;;16.60;10.23;;;;;;;;;;5017954;28;20423;-78
2022/03/29 04:06:21;;;;;;;17.37;10.23;;;;;;;;;;5030261;28;20427;-79
2022/03/29 04:08:48;;;;;;;18.60;11.30;;;;;;;;;;5027133;28;20934;-77
2022/03/29 04:11:14;;;;;;;16.90;10.43;;;;;;;;;;5015147;28;20816;-78
2022/03/29 04:13:40;;;;;;;18.63;10.67;;;;;;;;;;5007113;28;20547;-77
2022/03/29 04:16:06;;;;;;;20.87;11.63;;;;;;;;;;5016019;28;20555;-78
2022/03/29 04:18:32;;;;;;;19.67;11.23;;;;;;;;;;5017323;28;20454;-78
2022/03/29 04:21:00;;;;;;;17.87;10.97;;;;;;;;;;5003252;28;20469;-75
2022/03/29 04:23:26;;;;;;;17.07;10.77;;;;;;;;;;4984898;28;20436;-79
2022/03/29 04:25:52;;;;;;;26.23;10.50;;;;;;;;;;5015231;28;20485;-78
2022/03/29 04:28:19;;;;;;;20.10;10.97;;;;;;;;;;5007143;28;20455;-77
2022/03/29 04:30:45;;;;;;;17.83;9.37;;;;;;;;;;5002094;28;20439;-77
2022/03/29 04:33:11;;;;;;;18.80;10.80;;;;;;;;;;5008539;28;20845;-78
2022/03/29 04:35:37;;;;;;;17.37;10.00;;;;;;;;;;5008878;28;20974;-79
2022/03/29 04:38:03;;;;;;;22.17;10.17;;;;;;;;;;4986003;28;20511;-78
2022/03/29 04:40:29;;;;;;;15.40;10.33;;;;;;;;;;4999345;28;20420;-78
2022/03/29 04:42:55;;;;;;;23.03;12.00;;;;;;;;;;5003836;28;20559;-79
2022/03/29 04:45:21;;;;;;;17.30;10.73;;;;;;;;;;5014206;28;20452;-78
2022/03/29 04:47:48;;;;;;;17.33;10.20;;;;;;;;;;5004537;28;20423;-78
2022/03/29 04:50:15;;;;;;;16.00;9.70;;;;;;;;;;5025773;23;20478;-77
2022/03/29 04:52:44;;;;;;;15.03;10.03;;;;;;;;;;5018858;28;20513;-77
2022/03/29 04:55:13;;;;;;;13.80;9.67;;;;;;;;;;5014359;28;20524;-77
2022/03/29 04:57:41;;;;;;;19.83;10.27;;;;;;;;;;5020046;28;20434;-77
2022/03/29 05:00:08;;;;;;;14.90;9.93;;;;;;;;;;5020171;28;20461;-77
2022/03/29 05:02:35;;;;;;;17.67;10.60;;;;;;;;;;4999911;28;20437;-77
2022/03/29 05:05:02;;;;;;;19.93;10.10;;;;;;;;;;5020814;28;20478;-77
2022/03/29 05:07:28;;;;;;;15.00;9.83;;;;;;;;;;5012784;28;20556;-77
2022/03/29 05:09:55;;;;;;;14.13;9.10;;;;;;;;;;5018343;28;20485;-77
2022/03/29 05:12:21;;;;;;;17.90;10.70;;;;;;;;;;5019688;28;20480;-77
2022/03/29 05:14:47;;;;;;;16.73;9.73;;;;;;;;;;5014325;28;20530;-77
2022/03/29 05:17:13;;;;;;;15.30;9.80;;;;;;;;;;5019865;28;20430;-77
2022/03/29 05:19:39;;;;;;;15.47;9.50;;;;;;;;;;5017185;28;20443;-77
2022/03/29 05:22:06;;;;;;;14.40;9.03;;;;;;;;;;5018710;28;20432;-77
2022/03/29 05:24:32;;;;;;;15.30;10.00;;;;;;;;;;4989097;28;20467;-77
2022/03/29 05:26:58;;;;;;;18.63;9.90;;;;;;;;;;5016820;28;20426;-77
2022/03/29 05:29:25;;;;;;;15.30;9.07;;;;;;;;;;5021140;28;20541;-77
2022/03/29 05:31:51;;;;;;;20.57;10.43;;;;;;;;;;5019127;28;20431;-78
2022/03/29 05:34:17;;;;;;;16.83;10.17;;;;;;;;;;5019972;28;20454;-78
2022/03/29 05:36:45;;;;;;;16.80;9.27;;;;;;;;;;5016074;28;20424;-77
2022/03/29 05:39:13;;;;;;;14.50;8.83;;;;;;;;;;5018447;28;20951;-77
2022/03/29 05:41:40;;;;;;;17.43;9.70;;;;;;;;;;5016536;28;20424;-77
2022/03/29 05:44:06;;;;;;;15.87;9.60;;;;;;;;;;5018708;28;20807;-77
2022/03/29 05:49:16;;;;;;;17.53;10.20;;;;;;;;;;5017186;28;20481;-77
2022/03/29 05:51:42;;;;;;;21.60;10.60;;;;;;;;;;5017418;28;20423;-78
2022/03/29 05:54:08;;;;;;;18.30;10.80;;;;;;;;;;5018785;28;20913;-77
2022/03/29 05:56:35;;;;;;;25.60;11.10;;;;;;;;;;5018932;28;20431;-77
2022/03/29 05:59:01;;;;;;;21.63;11.27;;;;;;;;;;5017794;28;20516;-77
2022/03/29 06:01:27;;;;;;;25.67;13.13;;;;;;;;;;5002915;28;20453;-77
2022/03/29 06:03:53;;;;;;;19.03;10.87;;;;;;;;;;5019623;28;20438;-78
2022/03/29 06:06:19;;;;;;;18.67;9.63;;;;;;;;;;5004471;28;20793;-77
2022/03/29 06:08:45;;;;;;;18.63;9.73;;;;;;;;;;5020424;28;20523;-77
2022/03/29 06:11:13;;;;;;;16.50;9.87;;;;;;;;;;4993311;28;20435;-77
2022/03/29 06:13:39;;;;;;;19.40;10.37;;;;;;;;;;4991584;28;20741;-77
2022/03/29 06:16:05;;;;;;;17.00;10.03;;;;;;;;;;5019701;28;20466;-77
2022/03/29 06:18:33;;;;;;;16.13;9.20;;;;;;;;;;5020369;28;20603;-77
2022/03/29 06:20:59;;;;;;;22.90;11.47;;;;;;;;;;5014046;28;20493;-78
2022/03/29 06:23:25;;;;;;;20.30;11.60;;;;;;;;;;5019078;28;20517;-77
2022/03/29 06:25:51;;;;;;;17.77;10.10;;;;;;;;;;5018201;28;20480;-77
2022/03/29 06:28:17;;;;;;;16.10;10.07;;;;;;;;;;5022336;28;20565;-77
2022/03/29 06:30:44;;;;;;;19.27;10.00;;;;;;;;;;5025067;28;20448;-77
2022/03/29 06:33:10;;;;;;;17.00;10.43;;;;;;;;;;5021444;28;20458;-77
2022/03/29 06:35:38;;;;;;;19.87;10.43;;;;;;;;;;5019769;28;20541;-78
2022/03/29 06:38:05;;;;;;;20.43;11.13;;;;;;;;;;5026107;28;20797;-77
2022/03/29 06:40:31;;;;;;;17.03;10.10;;;;;;;;;;5015906;28;20478;-77
2022/03/29 06:42:58;;;;;;;14.33;8.60;;;;;;;;;;5011177;28;20419;-77
2022/03/29 06:45:25;;;;;;;17.97;10.50;;;;;;;;;;5013355;28;20432;-77
2022/03/29 06:47:51;;;;;;;13.07;8.80;;;;;;;;;;5012617;28;20438;-77
2022/03/29 06:50:17;;;;;;;17.60;9.27;;;;;;;;;;4995357;28;21045;-78
2022/03/29 06:52:44;;;;;;;15.50;9.73;;;;;;;;;;5008285;28;20558;-77
2022/03/29 06:55:11;;;;;;;12.40;8.93;;;;;;;;;;5016982;28;20458;-77
2022/03/29 06:57:38;;;;;;;21.90;10.63;;;;;;;;;;5011580;28;20437;-78
2022/03/29 07:00:05;;;;;;;19.13;11.07;;;;;;;;;;5021105;28;20468;-78
2022/03/29 07:02:31;;;;;;;23.23;10.53;;;;;;;;;;5021946;28;20423;-77
2022/03/29 07:04:57;;;;;;;13.10;9.00;;;;;;;;;;4990976;28;20435;-77
2022/03/29 07:07:23;;;;;;;15.50;10.40;;;;;;;;;;5013943;28;20497;-77
2022/03/29 07:12:46;;;;;;;16.20;9.63;;;;;;;;;;5016315;28;20423;-78
2022/03/29 07:15:12;;;;;;;16.90;10.13;;;;;;;;;;5012845;28;20493;-77
2022/03/29 07:17:38;;;;;;;15.63;9.23;;;;;;;;;;5013979;28;20419;-77
2022/03/29 07:20:05;;;;;;;14.90;9.80;;;;;;;;;;5013316;28;20466;-77
2022/03/29 07:22:31;;;;;;;16.13;10.50;;;;;;;;;;5014918;28;20427;-77
2022/03/29 07:24:57;;;;;;;14.90;8.60;;;;;;;;;;5017279;28;20439;-77
2022/03/29 07:27:23;;;;;;;16.60;9.70;;;;;;;;;;4996062;28;20512;-77
2022/03/29 07:29:50;;;;;;;19.73;8.97;;;;;;;;;;5015821;28;20529;-77
2022/03/29 07:32:16;;;;;;;21.73;9.03;;;;;;;;;;5016760;28;20432;-77
2022/03/29 07:34:42;;;;;;;16.37;9.90;;;;;;;;;;5015934;28;20469;-77
2022/03/29 07:37:08;;;;;;;12.33;8.97;;;;;;;;;;5017935;28;20534;-78
2022/03/29 07:39:34;;;;;;;15.30;9.30;;;;;;;;;;5017640;28;20895;-77
2022/03/29 07:42:01;;;;;;;12.80;8.53;;;;;;;;;;5017934;28;20506;-77
2022/03/29 07:44:27;;;;;;;12.43;9.47;;;;;;;;;;5016815;28;20427;-77
2022/03/29 07:46:53;;;;;;;12.80;8.93;;;;;;;;;;5016253;28;20521;-77
2022/03/29 07:49:19;;;;;;;16.27;9.70;;;;;;;;;;5015588;28;20467;-77
2022/03/29 07:51:45;;;;;;;15.23;9.17;;;;;;;;;;5017154;28;20415;-77
2022/03/29 07:54:11;;;;;;;14.73;9.70;;;;;;;;;;5017342;28;20764;-78
2022/03/29 07:56:37;;;;;;;14.33;9.37;;;;;;;;;;5016809;28;20576;-76
2022/03/29 07:59:03;;;;;;;18.47;8.67;;;;;;;;;;5014421;28;20939;-77
2022/03/29 08:01:29;;;;;;;14.43;9.90;;;;;;;;;;5011280;28;20523;-77
2022/03/29 08:03:55;;;;;;;14.67;9.50;;;;;;;;;;5007692;28;20514;-77
2022/03/29 08:06:21;;;;;;;22.50;10.77;;;;;;;;;;5013564;28;20517;-76
2022/03/29 08:08:48;;;;;;;17.13;9.83;;;;;;;;;;5012464;28;20481;-76
2022/03/29 08:11:14;;;;;;;15.00;8.33;;;;;;;;;;5003979;28;20513;-76
2022/03/29 08:13:40;;;;;;;12.70;8.97;;;;;;;;;;5013676;28;20787;-77
2022/03/29 08:16:06;;;;;;;13.00;8.67;;;;;;;;;;5011786;28;20458;-76
2022/03/29 08:18:35;;;;;;;12.83;9.40;;;;;;;;;;5011985;28;20427;-77
2022/03/29 08:21:01;;;;;;;19.47;10.73;;;;;;;;;;5014092;28;20422;-76
2022/03/29 08:23:28;;;;;;;18.60;10.80;;;;;;;;;;5009524;28;20463;-77
2022/03/29 08:25:54;;;;;;;18.93;11.00;;;;;;;;;;5012690;28;20419;-77
2022/03/29 08:28:21;;;;;;;16.00;11.00;;;;;;;;;;5011535;28;20546;-76
2022/03/29 08:30:47;;;;;;;14.43;10.00;;;;;;;;;;5013040;28;20450;-77
2022/03/29 08:33:14;;;;;;;15.10;9.63;;;;;;;;;;5012192;28;20423;-77
2022/03/29 08:35:43;;;;;;;18.73;9.70;;;;;;;;;;5008061;28;21034;-76
2022/03/29 08:38:09;;;;;;;13.80;9.53;;;;;;;;;;5006164;28;20893;-77
2022/03/29 08:40:35;;;;;;;16.80;10.90;;;;;;;;;;5013110;28;20808;-77
2022/03/29 08:43:01;;;;;;;20.30;11.00;;;;;;;;;;5011568;28;20502;-77
2022/03/29 08:45:31;;;;;;;14.57;10.40;;;;;;;;;;5010704;28;20430;-77
2022/03/29 08:47:59;;;;;;;15.40;9.50;;;;;;;;;;5007067;28;20423;-77
2022/03/29 08:50:28;;;;;;;17.30;9.50;;;;;;;;;;5011325;28;20479;-76
2022/03/29 08:52:54;;;;;;;18.27;9.93;;;;;;;;;;5012882;28;20428;-76
2022/03/29 08:55:21;;;;;;;17.90;10.83;;;;;;;;;;5016221;28;20455;-76
2022/03/29 08:57:49;;;;;;;14.13;9.70;;;;;;;;;;5012340;28;20435;-77
2022/03/29 09:00:16;;;;;;;13.63;10.03;;;;;;;;;;5014307;28;20539;-77
2022/03/29 09:02:42;;;;;;;17.90;9.37;;;;;;;;;;5013649;28;20435;-80
2022/03/29 09:05:10;;;;;;;13.20;10.37;;;;;;;;;;5009230;28;20420;-78
2022/03/29 09:07:46;;;;;;;16.97;9.93;;;;;;;;;;4996700;28;20432;-78
2022/03/29 09:10:13;;;;;;;20.63;10.63;;;;;;;;;;5013515;28;20459;-77
2022/03/29 09:12:39;;;;;;;15.27;9.43;;;;;;;;;;4997287;28;20423;-77
2022/03/29 09:15:06;;;;;;;17.27;10.07;;;;;;;;;;5013186;28;20496;-78
2022/03/29 09:17:33;;;;;;;14.40;9.93;;;;;;;;;;4995578;28;20569;-77
2022/03/29 09:20:04;;;;;;;16.50;9.83;;;;;;;;;;5016453;28;20428;-77
2022/03/29 09:22:36;;;;;;;18.30;10.13;;;;;;;;;;5013659;28;20415;-77
2022/03/29 09:25:02;;;;;;;21.03;10.63;;;;;;;;;;5012323;28;20434;-78
2022/03/29 09:27:28;;;;;;;21.20;10.57;;;;;;;;;;4986707;28;20419;-79
2022/03/29 09:30:14;;;;;;;13.03;9.03;;;;;;;;;;5022665;28;20482;-79
2022/03/29 09:32:51;;;;;;;15.90;9.97;;;;;;;;;;5012436;28;20820;-78
2022/03/29 09:35:18;;;;;;;22.60;10.63;;;;;;;;;;5005994;28;20473;-78
2022/03/29 09:37:45;;;;;;;17.93;10.93;;;;;;;;;;5000819;28;20469;-77
2022/03/29 09:40:12;;;;;;;13.90;10.37;;;;;;;;;;4994906;28;20555;-77
2022/03/29 09:42:39;;;;;;;18.13;9.30;;;;;;;;;;5011739;28;20433;-78
2022/03/29 09:45:05;;;;;;;20.60;11.00;;;;;;;;;;5011193;28;20442;-77
2022/03/29 09:47:31;;;;;;;15.43;9.73;;;;;;;;;;5012249;28;20419;-76
2022/03/29 09:50:06;;;;;;;16.00;10.47;;;;;;;;;;5016450;22;20495;-77
2022/03/29 09:52:44;;;;;;;17.30;10.40;;;;;;;;;;4991329;28;20510;-77
2022/03/29 09:55:42;;;;;;;15.00;10.37;;;;;;;;;;5010378;28;20450;-78
2022/03/29 09:58:28;;;;;;;18.80;11.50;;;;;;;;;;4993390;28;20415;-78
2022/03/29 10:01:02;;;;;;;15.03;9.70;;;;;;;;;;5011266;28;20426;-76
2022/03/29 10:06:55;;;;;;;33.27;10.90;;;;;;;;;;5009948;28;20938;-77
2022/03/29 10:09:33;;;;;;;15.60;11.30;;;;;;;;;;5014874;28;20434;-76
2022/03/29 10:12:03;;;;;;;20.87;11.43;;;;;;;;;;5017210;28;20767;-76
2022/03/29 10:14:30;;;;;;;19.03;11.00;;;;;;;;;;5017248;28;20419;-77
2022/03/29 10:16:57;;;;;;;27.97;12.20;;;;;;;;;;5016337;28;20461;-77
2022/03/29 10:19:26;;;;;;;17.00;11.10;;;;;;;;;;5012539;28;20450;-76
2022/03/29 10:22:22;;;;;;;;;;;;;;;;;;;;;
2022/03/29 10:25:03;;;;;;;14.23;9.93;;;;;;;;;;4978681;28;20945;-77
2022/03/29 10:28:05;;;;;;;13.70;10.73;;;;;;;;;;4994592;28;20414;-78
2022/03/29 10:30:35;;;;;;;17.23;11.03;;;;;;;;;;5049155;23;20488;-76
2022/03/29 10:33:22;;;;;;;15.87;9.67;;;;;;;;;;5033579;28;20754;-78
2022/03/29 10:36:23;;;;;;;;;;;;;;;;;;;;;
2022/03/29 10:39:21;;;;;;;18.10;12.60;;;;;;;;;;5034703;28;20854;-77
2022/03/29 10:41:53;;;;;;;14.50;10.00;;;;;;;;;;5026876;28;20958;-77
2022/03/29 10:44:25;;;;;;;18.87;11.50;;;;;;;;;;5014509;28;21136;-76
2022/03/29 10:46:52;;;;;;;16.23;11.17;;;;;;;;;;5015495;28;20502;-76
2022/03/29 10:49:47;;;;;;;19.00;10.67;;;;;;;;;;5035149;28;20441;-76
2022/03/29 10:52:22;;;;;;;17.20;11.17;;;;;;;;;;5011789;28;20442;-76
2022/03/29 10:54:49;;;;;;;13.70;11.37;;;;;;;;;;5024722;28;20474;-75
2022/03/29 10:57:41;;;;;;;;;;;;;;;;;;;;;
2022/03/29 11:00:34;;;;;;;17.73;10.13;;;;;;;;;;5029247;28;20450;-76
2022/03/29 11:03:07;;;;;;;20.80;11.10;;;;;;;;;;5026962;28;20464;-76
2022/03/29 11:06:05;;;;;;;24.57;12.30;;;;;;;;;;5031403;28;20434;-77
2022/03/29 11:08:34;;;;;;;18.50;11.53;;;;;;;;;;5028968;28;20421;-77
2022/03/29 11:11:03;;;;;;;16.00;11.30;;;;;;;;;;5021601;28;20600;-76
2022/03/29 11:13:31;;;;;;;19.47;11.57;;;;;;;;;;5024260;28;20427;-76
2022/03/29 11:16:01;;;;;;;17.37;10.10;;;;;;;;;;5028737;28;20487;-75
2022/03/29 11:18:39;;;;;;;17.77;10.60;;;;;;;;;;5012530;28;20790;-76
2022/03/29 11:21:06;;;;;;;16.93;10.50;;;;;;;;;;5008477;28;20517;-75
2022/03/29 11:23:42;;;;;;;20.50;10.83;;;;;;;;;;5009912;28;21010;-76
2022/03/29 11:26:10;;;;;;;23.07;10.73;;;;;;;;;;5029421;28;20445;-76
2022/03/29 11:28:37;;;;;;;17.80;10.83;;;;;;;;;;5010421;28;20809;-75
2022/03/29 11:31:03;;;;;;;15.20;9.43;;;;;;;;;;5027285;28;20441;-76
2022/03/29 11:33:36;;;;;;;18.10;10.00;;;;;;;;;;5034828;28;20425;-77
2022/03/29 11:36:06;;;;;;;21.53;10.43;;;;;;;;;;5032965;28;20457;-77
2022/03/29 11:38:33;;;;;;;23.03;11.60;;;;;;;;;;5026407;28;20501;-77
2022/03/29 11:40:59;;;;;;;15.43;8.80;;;;;;;;;;5001316;28;20423;-77
2022/03/29 11:43:26;;;;;;;14.20;10.60;;;;;;;;;;5028683;28;20425;-77
2022/03/29 11:45:56;;;;;;;15.80;9.20;;;;;;;;;;5032669;28;20437;-76
2022/03/29 11:48:24;;;;;;;16.60;10.07;;;;;;;;;;5031935;28;20422;-77
2022/03/29 11:50:54;;;;;;;16.43;9.60;;;;;;;;;;5033362;28;20497;-76
2022/03/29 11:53:23;;;;;;;14.63;9.80;;;;;;;;;;5025299;28;20425;-76
2022/03/29 11:56:08;;;;;;;16.80;10.40;;;;;;;;;;5033686;28;20918;-76
2022/03/29 11:58:38;;;;;;;11.90;9.03;;;;;;;;;;5016356;28;20422;-77
2022/03/29 12:01:07;;;;;;;18.17;10.13;;;;;;;;;;5015891;28;20441;-78
2022/03/29 12:03:42;;;;;;;18.67;9.50;;;;;;;;;;5030462;28;20505;-77
2022/03/29 12:06:10;;;;;;;17.23;9.33;;;;;;;;;;5024534;28;20802;-78
2022/03/29 12:09:02;;;;;;;15.53;8.10;;;;;;;;;;5032954;28;21254;-79
2022/03/29 12:11:44;;;;;;;16.13;9.13;;;;;;;;;;5014124;28;20484;-77
2022/03/29 12:14:12;;;;;;;16.77;7.90;;;;;;;;;;5009286;28;20849;-78
2022/03/29 12:16:39;;;;;;;18.50;10.03;;;;;;;;;;5014229;28;20490;-77
2022/03/29 12:19:09;;;;;;;12.30;9.77;;;;;;;;;;5026073;28;21315;-77
2022/03/29 12:21:36;;;;;;;13.97;9.50;;;;;;;;;;5013352;28;20476;-77
2022/03/29 12:24:03;;;;;;;13.43;9.70;;;;;;;;;;5022917;28;20419;-78
2022/03/29 12:26:30;;;;;;;22.20;10.27;;;;;;;;;;5032412;28;20512;-76
2022/03/29 12:28:57;;;;;;;11.63;8.43;;;;;;;;;;5029174;28;20450;-77
2022/03/29 12:31:24;;;;;;;13.80;9.90;;;;;;;;;;5030341;28;20411;-78
2022/03/29 12:33:52;;;;;;;13.17;8.80;;;;;;;;;;5022356;28;20442;-78
2022/03/29 12:36:19;;;;;;;13.73;10.43;;;;;;;;;;5031654;28;20515;-78
2022/03/29 12:38:52;;;;;;;17.00;10.07;;;;;;;;;;5021107;28;20773;-77
2022/03/29 12:41:38;;;;;;;15.70;9.03;;;;;;;;;;5032292;28;20484;-77
2022/03/29 12:44:05;;;;;;;14.33;9.87;;;;;;;;;;5028105;28;20953;-77
2022/03/29 12:46:31;;;;;;;16.10;9.10;;;;;;;;;;5028221;28;20495;-76
2022/03/29 12:48:58;;;;;;;17.47;8.77;;;;;;;;;;5032795;28;20945;-76
2022/03/29 12:51:31;;;;;;;12.90;8.90;;;;;;;;;;5014839;28;20418;-76
2022/03/29 12:53:59;;;;;;;14.63;8.63;;;;;;;;;;5031910;28;20447;-77
2022/03/29 12:56:29;;;;;;;15.20;8.70;;;;;;;;;;5032012;28;20973;-77
2022/03/29 12:58:55;;;;;;;14.03;9.00;;;;;;;;;;5030836;28;20422;-76
2022/03/29 13:01:26;;;;;;;14.77;9.67;;;;;;;;;;5031835;28;20434;-76
2022/03/29 13:03:52;;;;;;;12.10;8.70;;;;;;;;;;5031240;28;20425;-78
2022/03/29 13:06:18;;;;;;;16.93;9.27;;;;;;;;;;5028447;28;20453;-77
2022/03/29 13:08:44;;;;;;;12.03;7.90;;;;;;;;;;5026093;28;20434;-77
2022/03/29 13:11:20;;;;;;;20.97;8.70;;;;;;;;;;5022405;28;20564;-77
2022/03/29 13:14:03;;;;;;;14.20;8.50;;;;;;;;;;5031505;28;20549;-77
2022/03/29 13:16:29;;;;;;;9.50;7.10;;;;;;;;;;5032341;28;20503;-76
2022/03/29 13:18:55;;;;;;;10.40;7.90;;;;;;;;;;5026849;28;20795;-77
2022/03/29 13:21:32;;;;;;;19.00;8.20;;;;;;;;;;5027591;28;20904;-77
2022/03/29 13:23:58;;;;;;;14.10;8.37;;;;;;;;;;5027527;28;20415;-77
2022/03/29 13:26:28;;;;;;;17.13;8.40;;;;;;;;;;5012103;28;20429;-77
2022/03/29 13:28:55;;;;;;;14.87;7.97;;;;;;;;;;5025859;28;20445;-77
2022/03/29 13:31:23;;;;;;;10.97;8.63;;;;;;;;;;5025871;28;20421;-78
2022/03/29 13:33:50;;;;;;;15.10;9.37;;;;;;;;;;5034513;28;20753;-77
2022/03/29 13:36:17;;;;;;;12.80;8.00;;;;;;;;;;5031732;28;20482;-78
2022/03/29 13:38:44;;;;;;;13.93;8.47;;;;;;;;;;5033815;28;20442;-78
2022/03/29 13:41:11;;;;;;;20.93;9.27;;;;;;;;;;5034822;28;20501;-77
2022/03/29 13:43:38;;;;;;;14.07;8.70;;;;;;;;;;5030240;28;20407;-77
2022/03/29 13:46:05;;;;;;;13.73;7.17;;;;;;;;;;5030723;28;20422;-77
2022/03/29 13:48:32;;;;;;;15.37;8.40;;;;;;;;;;5017219;28;20448;-78
2022/03/29 13:50:59;;;;;;;13.40;8.27;;;;;;;;;;5030947;28;20507;-77
2022/03/29 13:53:26;;;;;;;12.20;7.93;;;;;;;;;;5031948;28;20450;-78
2022/03/29 13:55:52;;;;;;;13.20;7.67;;;;;;;;;;5004346;28;20455;-78
2022/03/29 13:58:18;;;;;;;21.60;6.80;;;;;;;;;;5034172;28;20445;-79
2022/03/29 14:00:44;;;;;;;13.03;7.37;;;;;;;;;;5022835;28;21054;-77
2022/03/29 14:03:11;;;;;;;13.07;7.07;;;;;;;;;;5025787;28;20414;-77
2022/03/29 14:05:40;;;;;;;17.03;8.10;;;;;;;;;;5034344;28;20919;-78
2022/03/29 14:08:07;;;;;;;12.30;7.07;;;;;;;;;;5030989;28;20430;-78
2022/03/29 14:10:33;;;;;;;21.03;6.40;;;;;;;;;;5024247;28;20527;-77
2022/03/29 14:13:01;;;;;;;19.43;7.03;;;;;;;;;;5002103;28;20848;-78
2022/03/29 14:15:28;;;;;;;12.97;7.40;;;;;;;;;;5021711;28;20462;-77
2022/03/29 14:17:54;;;;;;;19.27;7.90;;;;;;;;;;5014022;28;20422;-77
2022/03/29 14:20:21;;;;;;;12.50;6.53;;;;;;;;;;4995296;28;20518;-78
2022/03/29 14:22:47;;;;;;;12.80;7.63;;;;;;;;;;5031561;28;20564;-78
2022/03/29 14:25:14;;;;;;;23.07;7.77;;;;;;;;;;5023391;28;20513;-77
2022/03/29 14:27:40;;;;;;;12.97;7.40;;;;;;;;;;5011950;28;20422;-77
2022/03/29 14:30:08;;;;;;;10.43;6.33;;;;;;;;;;5014684;28;20461;-78
2022/03/29 14:32:34;;;;;;;13.30;6.87;;;;;;;;;;5030624;28;20426;-77
2022/03/29 14:35:05;;;;;;;14.87;6.50;;;;;;;;;;5026898;28;20611;-76
2022/03/29 14:37:32;;;;;;;12.30;6.00;;;;;;;;;;5012910;28;20422;-78
2022/03/29 14:39:58;;;;;;;14.10;7.00;;;;;;;;;;5022688;28;20799;-76
2022/03/29 14:42:24;;;;;;;13.13;7.33;;;;;;;;;;5020984;28;20423;-77
2022/03/29 14:44:50;;;;;;;12.23;6.57;;;;;;;;;;5024585;28;20426;-77